Drake Field
KFYV : now visible

Airfield :











YOU CAN JOIN US ON...

 
LOGIN :

Register | Disclaimer

   EN    FR    IT 

 









Legend :    VFR   Marginal VFR   IFR   Intensive IFR   Very Intensive IFR
Visi :
Ceiling :
>= 8 km
>= 3000ft
5 to 8 km
1000 to 3000 ft
1500m to 5 km
500 to 1000 ft
800 to 1500m
200 to 500 ft
< 800m
< 200 ft
Symbols :   Thunderstorms  Fog  Heavy snow  Heavy precipitations  Wind > 20 kt






- Airport Elevation : 1251 ft
- IATA code : FYV


KFYV - Drake Field

CURRENT METAR :
  • 041453Z 18006KT 10SM SCT040 SCT049 OVC110 23/22 A2999 RMK AO2 RAE06 SLP141 P0000 60006 T02280222 55003

EXPIRED METARs :
  • 041353Z 00000KT 10SM -RA SCT048 BKN060 OVC095 21/21 A2999 RMK AO2 RAE05B42 SLP141 P0000 T02110211
  • 041253Z 00000KT 9SM -RA FEW050 OVC100 21/21 A2999 RMK AO2 SLP139 P0006 T02060206
  • 041153Z 05003KT 7SM -RA BKN110 21/21 A3000 RMK AO2 SLP143 P0013 60081 70081 T02060206 10244 20200 51013

TAF KFYV
Valid from the 04 at 12:00 until the 05 at 12:00 UTC


041125Z 0412/0512 VRB03KT P6SM VCSH BKN050
TEMPO 0412/0415 3SM -TSRA BKN025CB
FM042000 03005KT P6SM VCTS BKN040CB
FM050100 VRB03KT P6SM SCT050 BKN250
KZME FIR / North America



MET'MAP, your aeronautical weather chart ! - Copyright ORBIFLY December 2007 - Disclaimer

ORBIFLY MET'MAP TEAM :

Programming & Development : Alexandra Zaïnal
Concept & original design : Baudouin d'Aumeries
Assistance for programming : Marc-Olivier Méhu
Technical & hardware support : Manuel Goepfert

Contact : metmap@orbifly.com




SOURCES & CREDITS :

   NOAA       Earth
Advisory